Terminal Aerodrome Forecast
Issued by NWS Charleston, WV

Home | Current Version | Previous Version | Text Only | Print | Product List | Glossary On
Versions: 1 2 3 4 5 6 7 8 9 10 11 12 13 14 15 16 17 18 19 20 21 22 23 24 25
000
FTUS41 KRLX 040204 AAC
TAFHTS
TAF AMD
KHTS 040204Z 0402/0424 24007KT 3SM TSRA BKN035CB OVC080
     FM040400 24005KT 6SM -SHRA SCT001 BKN030
     FM040700 26004KT 6SM BR BKN020
     FM041200 26004KT P6SM BKN030
     FM041500 26004KT P6SM SCT035=

USA.gov is the U.S. government's official web portal to all federal, state and local government web resources and services.